Time;durP1;ratioP1;P1;durP2;ratioP2;P2;SDS_P1;SDS_P2;PMS_P1;PMS_P2;Temp;Humidity;BMP_temperature;BMP_pressure;BME280_temperature;BME280_humidity;BME280_pressure;Samples;Min_cycle;Max_cycle;Signal;HPM_P1;HPM_P2
2021/12/06 00:00:21;;;;;;;28.67;14.75;;;;;;;-3.07;82.66;99447.88;4943413;28;20066;-79
2021/12/06 00:02:47;;;;;;;29.92;17.02;;;;;;;-3.00;83.48;99446.53;4945351;28;20401;-81
2021/12/06 00:05:14;;;;;;;32.67;16.33;;;;;;;-2.95;83.14;99452.69;4961029;28;20030;-80
2021/12/06 00:07:40;;;;;;;30.20;14.63;;;;;;;-2.87;82.63;99456.44;4972540;28;20042;-80
2021/12/06 00:10:07;;;;;;;28.95;14.13;;;;;;;-2.88;82.26;99458.13;4959707;28;20097;-80
2021/12/06 00:12:33;;;;;;;29.00;15.02;;;;;;;-2.95;82.51;99458.63;4993785;28;20072;-79
2021/12/06 00:14:58;;;;;;;24.45;13.32;;;;;;;-2.94;82.53;99462.03;4944775;28;20054;-79
2021/12/06 00:17:24;;;;;;;25.13;14.43;;;;;;;-2.98;82.46;99458.47;4983013;28;20041;-79
2021/12/06 00:19:50;;;;;;;27.58;14.88;;;;;;;-2.99;82.69;99460.94;4957109;28;20030;-80
2021/12/06 00:22:22;;;;;;;28.65;15.63;;;;;;;-3.03;82.75;99461.59;4977895;28;20485;-79
2021/12/06 00:24:47;;;;;;;30.70;15.05;;;;;;;-3.11;82.73;99473.94;4946029;28;20421;-78
2021/12/06 00:27:13;;;;;;;30.73;15.13;;;;;;;-3.17;82.73;99468.56;4960275;28;20038;-79
2021/12/06 00:29:39;;;;;;;25.73;13.65;;;;;;;-3.19;82.81;99458.34;4963514;28;20428;-79
2021/12/06 00:32:05;;;;;;;27.25;14.20;;;;;;;-3.22;82.85;99453.13;5004916;28;20057;-79
2021/12/06 00:34:34;;;;;;;;;;;;;;;-3.19;84.28;99460.03;4944250;28;20050;-79
2021/12/06 00:37:16;;;;;;;29.00;14.50;;;;;;;-3.15;83.30;99464.44;4979909;28;19958;-79
2021/12/06 00:39:42;;;;;;;24.63;14.25;;;;;;;-3.16;83.61;99461.03;4972066;28;20517;-78
2021/12/06 00:42:08;;;;;;;27.55;14.30;;;;;;;-3.18;82.78;99467.69;4976057;28;20041;-79
2021/12/06 00:44:33;;;;;;;26.42;14.63;;;;;;;-3.22;82.78;99473.41;4960124;28;20038;-79
2021/12/06 00:46:59;;;;;;;24.95;13.65;;;;;;;-3.22;82.69;99470.03;4959952;28;20386;-78
2021/12/06 00:49:25;;;;;;;25.38;14.77;;;;;;;-3.20;82.70;99465.91;4941226;28;20714;-79
2021/12/06 00:51:50;;;;;;;21.23;12.10;;;;;;;-3.20;82.17;99466.78;4967855;28;20409;-79
2021/12/06 00:54:16;;;;;;;22.08;11.60;;;;;;;-3.19;81.83;99465.09;4993335;28;20520;-80
2021/12/06 00:56:42;;;;;;;24.17;13.63;;;;;;;-3.16;82.20;99467.75;4959736;28;20066;-80
2021/12/06 00:59:08;;;;;;;23.10;12.00;;;;;;;-3.09;82.22;99472.34;4960121;28;20042;-79
2021/12/06 01:01:34;;;;;;;21.63;12.45;;;;;;;-3.05;82.33;99469.16;4944535;28;20121;-78
2021/12/06 01:04:00;;;;;;;22.83;13.20;;;;;;;-3.03;81.89;99464.13;4969422;28;20073;-79
2021/12/06 01:06:26;;;;;;;24.00;13.57;;;;;;;-3.05;81.17;99455.59;4958605;28;20588;-78
2021/12/06 01:08:51;;;;;;;22.80;11.93;;;;;;;-2.96;81.57;99464.50;4946451;28;20054;-79
2021/12/06 01:11:19;;;;;;;22.10;13.13;;;;;;;-2.97;81.26;99456.81;4995582;28;20504;-79
2021/12/06 01:13:45;;;;;;;24.48;13.55;;;;;;;-2.94;80.68;99451.88;4957009;28;20039;-79
2021/12/06 01:16:12;;;;;;;24.98;12.65;;;;;;;-2.94;81.00;99444.25;4971816;28;20062;-79
2021/12/06 01:18:38;;;;;;;;;;;;;;;-3.03;80.43;99457.38;4958436;28;20142;-80
2021/12/06 01:23:42;;;;;;;;;;;;;;;-3.20;80.53;99454.09;4975575;28;20046;-79
2021/12/06 01:26:29;;;;;;;19.60;11.13;;;;;;;-3.25;80.73;99449.56;4945792;28;19918;-79
2021/12/06 01:31:54;;;;;;;20.73;11.43;;;;;;;-3.19;81.69;99455.81;4950479;28;20297;-79
2021/12/06 01:39:43;;;;;;;23.45;12.20;;;;;;;-3.32;81.32;99449.28;4952387;28;20039;-80
2021/12/06 01:42:10;;;;;;;25.90;12.98;;;;;;;-3.32;81.06;99453.50;4963295;28;20486;-79
2021/12/06 01:44:39;;;;;;;22.35;11.98;;;;;;;-3.33;81.37;99456.84;4963580;28;20096;-78
2021/12/06 01:47:12;;;;;;;26.15;13.73;;;;;;;-3.33;81.63;99464.44;4965816;28;20093;-79
2021/12/06 01:49:40;;;;;;;22.65;13.05;;;;;;;-3.36;81.54;99470.22;4959737;28;20110;-80
2021/12/06 01:52:10;;;;;;;26.35;13.40;;;;;;;-3.43;81.57;99480.03;4952978;28;20121;-80
2021/12/06 01:54:37;;;;;;;19.77;11.38;;;;;;;-3.47;82.38;99478.13;4954483;28;20078;-79
2021/12/06 01:57:04;;;;;;;23.33;11.20;;;;;;;-3.47;81.78;99483.22;4944482;28;20418;-79
2021/12/06 01:59:29;;;;;;;25.13;13.30;;;;;;;-3.49;81.81;99478.03;4963015;28;20073;-79
2021/12/06 02:01:55;;;;;;;22.75;13.00;;;;;;;-3.49;81.94;99480.56;4963111;28;20030;-79
2021/12/06 02:04:22;;;;;;;26.17;12.93;;;;;;;-3.48;81.68;99476.38;4959661;28;20049;-79
2021/12/06 02:06:47;;;;;;;20.80;12.00;;;;;;;-3.48;82.21;99472.19;4963810;28;20038;-79
2021/12/06 02:09:16;;;;;;;24.20;12.75;;;;;;;-3.48;81.98;99481.44;4951468;28;20050;-79
2021/12/06 02:11:43;;;;;;;25.42;13.40;;;;;;;-3.48;82.09;99479.81;4952324;28;20536;-79
2021/12/06 02:14:33;;;;;;;25.80;14.02;;;;;;;-3.51;82.32;99481.31;4947009;28;20513;-80
2021/12/06 02:17:19;;;;;;;25.85;12.90;;;;;;;-3.49;83.42;99487.31;4962781;28;20049;-79
2021/12/06 02:19:51;;;;;;;27.40;14.60;;;;;;;-3.53;82.44;99482.88;4964756;28;20046;-79
2021/12/06 02:22:20;;;;;;;28.23;14.80;;;;;;;-3.52;83.49;99487.19;4958804;28;20058;-79
2021/12/06 02:24:45;;;;;;;25.15;13.15;;;;;;;-3.54;82.67;99486.22;4935847;28;20394;-79
2021/12/06 02:27:12;;;;;;;27.40;12.90;;;;;;;-3.59;82.77;99479.25;4943179;28;20070;-79
2021/12/06 02:29:38;;;;;;;24.00;12.85;;;;;;;-3.49;82.63;99487.31;4943391;28;20153;-79
2021/12/06 02:32:09;;;;;;;23.52;12.00;;;;;;;-3.51;82.25;99488.91;4942705;28;20047;-79
2021/12/06 02:34:36;;;;;;;24.65;12.43;;;;;;;-3.47;82.12;99488.28;4959044;28;20058;-79
2021/12/06 02:37:02;;;;;;;25.83;13.25;;;;;;;-3.49;81.84;99484.78;4942939;28;20066;-79
2021/12/06 02:39:30;;;;;;;25.52;12.27;;;;;;;-3.47;82.23;99483.22;4942988;28;20498;-79
2021/12/06 02:41:56;;;;;;;23.95;12.27;;;;;;;-3.36;82.56;99487.13;4957627;28;20031;-79
2021/12/06 02:44:22;;;;;;;22.55;11.82;;;;;;;-3.38;81.92;99487.06;4958451;28;20042;-79
2021/12/06 02:46:48;;;;;;;23.17;12.63;;;;;;;-3.39;81.88;99481.88;4943207;28;20516;-79
2021/12/06 02:49:15;;;;;;;25.63;12.52;;;;;;;-3.40;81.86;99490.28;4943113;28;20102;-79
2021/12/06 02:51:41;;;;;;;26.35;12.73;;;;;;;-3.38;82.27;99483.66;4943137;28;20039;-79
2021/12/06 02:54:07;;;;;;;24.35;13.43;;;;;;;-3.41;82.09;99484.34;4958570;28;20089;-79
2021/12/06 02:56:39;;;;;;;25.77;12.38;;;;;;;-3.41;81.75;99479.28;4955079;28;20230;-80
2021/12/06 02:59:08;;;;;;;28.02;14.15;;;;;;;-3.34;82.34;99478.81;4946985;28;20038;-79
2021/12/06 03:01:39;;;;;;;29.25;14.75;;;;;;;-3.28;82.16;99480.75;4926342;28;20030;-79
2021/12/06 03:04:05;;;;;;;27.45;14.43;;;;;;;-3.23;82.15;99486.91;4958481;28;20035;-80
2021/12/06 03:06:31;;;;;;;33.17;15.60;;;;;;;-3.14;82.19;99474.66;4958511;28;20062;-80
2021/12/06 03:09:07;;;;;;;36.28;17.10;;;;;;;-3.10;81.80;99486.69;4944851;28;20094;-80
2021/12/06 03:11:52;;;;;;;27.92;14.27;;;;;;;-3.04;82.44;99480.16;4959483;28;20086;-79
2021/12/06 03:14:20;;;;;;;32.22;15.52;;;;;;;-3.00;82.06;99475.31;4961824;28;20053;-80
2021/12/06 03:16:48;;;;;;;28.48;14.45;;;;;;;-2.98;82.38;99475.38;4950701;28;20040;-80
2021/12/06 03:19:15;;;;;;;31.52;14.65;;;;;;;-3.10;81.46;99468.06;4970529;28;20042;-80
2021/12/06 03:21:41;;;;;;;;;;;;;;;-3.07;82.11;99473.25;4959400;28;21442;-79
2021/12/06 03:24:07;;;;;;;26.33;13.73;;;;;;;-3.12;82.10;99478.13;4958192;28;20012;-80
2021/12/06 03:26:34;;;;;;;30.70;14.27;;;;;;;-3.16;82.14;99471.19;4926263;28;20046;-80
2021/12/06 03:29:01;;;;;;;30.80;14.70;;;;;;;-3.01;82.64;99475.25;4942291;28;20627;-80
2021/12/06 03:31:28;;;;;;;27.10;14.27;;;;;;;-3.02;81.86;99476.00;4926691;28;20442;-81
2021/12/06 03:33:56;;;;;;;31.65;15.65;;;;;;;-3.08;81.67;99479.13;4926619;28;20046;-81
2021/12/06 03:36:23;;;;;;;27.40;13.95;;;;;;;-3.11;81.63;99479.88;4925976;28;20594;-79
2021/12/06 03:38:51;;;;;;;24.98;13.02;;;;;;;-3.12;81.09;99480.66;4929797;28;20039;-80
2021/12/06 03:41:18;;;;;;;23.95;12.88;;;;;;;-3.05;81.72;99486.03;4932971;28;20022;-79
2021/12/06 03:43:44;;;;;;;;;;;;;;;-3.09;80.57;99487.56;4942632;28;20047;-79
2021/12/06 03:46:11;;;;;;;24.40;13.15;;;;;;;-3.16;80.21;99493.13;4957422;28;19914;-79
2021/12/06 03:48:39;;;;;;;27.88;12.75;;;;;;;-3.18;80.26;99487.13;4925858;28;20047;-80
2021/12/06 03:51:05;;;;;;;27.85;14.15;;;;;;;-3.15;81.14;99483.06;4940290;28;20081;-79
2021/12/06 03:53:31;;;;;;;;;;;;;;;-3.16;81.48;99481.34;4926065;28;20054;-81
2021/12/06 03:55:58;;;;;;;;;;;;;;;-3.07;81.23;99486.84;4938409;29;20320;-80
2021/12/06 03:58:24;;;;;;;27.52;14.45;;;;;;;-3.05;80.79;99483.50;4946499;28;19942;-80
2021/12/06 04:00:50;;;;;;;24.77;13.60;;;;;;;-2.99;81.01;99484.66;4925503;28;20070;-81
2021/12/06 04:03:17;;;;;;;21.67;12.18;;;;;;;-2.98;80.21;99486.38;4933007;28;20043;-79
2021/12/06 04:05:44;;;;;;;24.83;12.98;;;;;;;-2.91;80.79;99490.09;4951647;28;20458;-78
2021/12/06 04:08:10;;;;;;;23.42;12.10;;;;;;;-2.89;80.48;99496.09;4941575;28;20050;-78
2021/12/06 04:10:37;;;;;;;22.13;12.02;;;;;;;-2.99;79.61;99494.81;4957825;28;20043;-78
2021/12/06 04:13:04;;;;;;;31.20;16.35;;;;;;;-2.97;80.26;99502.50;4934685;28;20059;-80
2021/12/06 04:15:33;;;;;;;27.55;13.75;;;;;;;-2.97;79.83;99497.44;4941582;28;20027;-79
2021/12/06 04:17:59;;;;;;;23.88;13.50;;;;;;;-3.01;80.14;99509.09;4928063;29;20047;-78
2021/12/06 04:20:26;;;;;;;25.70;12.65;;;;;;;-3.03;80.02;99504.72;4957148;28;20474;-79
2021/12/06 04:22:54;;;;;;;22.50;12.50;;;;;;;-3.08;80.04;99515.53;4956908;28;20458;-78
2021/12/06 04:25:20;;;;;;;24.83;12.30;;;;;;;-3.15;79.61;99503.38;4965087;28;20042;-81
2021/12/06 04:27:59;;;;;;;24.27;12.07;;;;;;;-3.07;80.38;99509.69;4943928;28;20489;-79
2021/12/06 04:30:27;;;;;;;25.83;13.30;;;;;;;-3.14;80.50;99514.38;4959943;28;20049;-78
2021/12/06 04:32:55;;;;;;;27.42;13.35;;;;;;;-3.16;80.94;99504.19;4945026;28;20074;-78
2021/12/06 04:35:22;;;;;;;29.00;13.75;;;;;;;-3.14;80.77;99502.56;4946151;28;20034;-77
2021/12/06 04:37:48;;;;;;;25.08;12.52;;;;;;;-3.16;79.97;99505.81;4942475;28;20062;-78
2021/12/06 04:40:15;;;;;;;27.48;13.52;;;;;;;-3.13;80.66;99516.13;4979116;28;20038;-79
2021/12/06 04:42:41;;;;;;;;;;;;;;;-3.12;80.56;99512.78;4963883;28;20030;-77
2021/12/06 04:45:08;;;;;;;24.55;12.93;;;;;;;-3.12;80.45;99507.69;4994312;28;19917;-78
2021/12/06 04:47:35;;;;;;;24.02;12.20;;;;;;;-3.13;80.72;99522.06;4963794;28;20037;-77
2021/12/06 04:50:00;;;;;;;26.23;13.07;;;;;;;-3.21;79.97;99514.88;4995237;28;20041;-79
2021/12/06 04:52:26;;;;;;;23.30;12.18;;;;;;;-3.35;79.79;99517.63;4962885;28;20544;-78
2021/12/06 04:54:54;;;;;;;22.80;11.55;;;;;;;-3.35;80.33;99519.28;4979196;28;20087;-78
2021/12/06 04:57:24;;;;;;;21.70;10.95;;;;;;;-3.38;80.41;99511.53;4944334;28;20422;-78
2021/12/06 04:59:55;;;;;;;22.15;10.93;;;;;;;-3.45;80.03;99519.63;4963300;28;20038;-78
2021/12/06 05:02:25;;;;;;;21.17;11.73;;;;;;;-3.52;80.49;99525.22;4975769;28;20060;-81
2021/12/06 05:04:52;;;;;;;18.65;10.38;;;;;;;-3.52;80.22;99532.84;4962757;28;20101;-78
2021/12/06 05:07:22;;;;;;;19.73;11.30;;;;;;;-3.54;81.04;99536.94;4971167;28;20046;-78
2021/12/06 05:09:48;;;;;;;21.63;10.68;;;;;;;-3.46;81.49;99535.66;4978902;28;20497;-79
2021/12/06 05:12:18;;;;;;;21.83;10.95;;;;;;;-3.34;81.46;99539.66;4979354;28;20042;-79
2021/12/06 05:14:45;;;;;;;22.40;10.48;;;;;;;-3.22;81.31;99541.06;4963569;28;20050;-78
2021/12/06 05:17:11;;;;;;;21.70;12.10;;;;;;;-3.26;80.37;99545.09;4947674;28;20053;-79
2021/12/06 05:19:37;;;;;;;21.13;11.13;;;;;;;-3.23;80.79;99535.09;4962974;28;20119;-78
2021/12/06 05:22:05;;;;;;;22.40;11.38;;;;;;;-3.14;80.24;99533.00;4963056;28;20037;-79
2021/12/06 05:24:30;;;;;;;21.77;11.02;;;;;;;-3.21;79.98;99540.25;4963141;28;20108;-79
2021/12/06 05:26:56;;;;;;;18.42;9.80;;;;;;;-3.16;80.14;99546.41;4979106;28;20459;-79
2021/12/06 05:29:25;;;;;;;22.58;11.48;;;;;;;-3.22;80.58;99549.53;4995537;28;20125;-79
2021/12/06 05:31:56;;;;;;;23.02;12.10;;;;;;;-3.22;80.11;99547.00;4963808;28;20448;-78
2021/12/06 05:34:29;;;;;;;27.13;12.32;;;;;;;-3.18;80.50;99543.81;4979111;28;20127;-79
2021/12/06 05:36:55;;;;;;;27.13;11.85;;;;;;;-3.14;80.67;99545.69;4979889;28;20137;-79
2021/12/06 05:39:21;;;;;;;;;;;;;;;-3.15;80.79;99556.66;4979634;28;20037;-78
2021/12/06 05:41:46;;;;;;;24.10;12.10;;;;;;;-3.15;80.92;99549.03;5012847;28;19923;-78
2021/12/06 05:44:12;;;;;;;24.95;12.63;;;;;;;-3.09;81.41;99546.78;4963296;28;20057;-78
2021/12/06 05:46:38;;;;;;;25.08;12.32;;;;;;;-3.03;81.03;99552.94;4962893;28;20042;-78
2021/12/06 05:49:04;;;;;;;25.48;12.25;;;;;;;-3.03;80.65;99555.50;4979004;28;20123;-78
2021/12/06 05:51:29;;;;;;;29.38;14.25;;;;;;;-3.02;80.69;99558.13;4979273;28;20062;-79
2021/12/06 05:53:55;;;;;;;27.50;14.02;;;;;;;-3.03;81.28;99568.19;4978801;28;20468;-77
2021/12/06 05:56:21;;;;;;;;;;;;;;;-3.02;81.06;99568.28;4981704;28;20070;-79
2021/12/06 05:58:47;;;;;;;28.13;13.48;;;;;;;-2.96;80.71;99576.16;4969800;28;19921;-79
2021/12/06 06:01:13;;;;;;;29.58;14.10;;;;;;;-2.97;80.64;99571.03;4965367;28;20042;-77
2021/12/06 06:03:39;;;;;;;28.63;13.70;;;;;;;-2.94;81.23;99563.53;4943936;28;20049;-79
2021/12/06 06:06:05;;;;;;;30.85;14.63;;;;;;;-2.97;80.26;99565.94;4975862;28;20089;-79
2021/12/06 06:08:30;;;;;;;30.60;15.05;;;;;;;-2.95;81.00;99556.72;4953422;28;20081;-80
2021/12/06 06:10:56;;;;;;;34.03;15.35;;;;;;;-3.00;80.88;99569.19;4959438;28;20050;-79
2021/12/06 06:13:22;;;;;;;43.15;22.13;;;;;;;-2.95;80.38;99566.88;4959682;28;20101;-81
2021/12/06 06:15:50;;;;;;;37.90;17.95;;;;;;;-2.93;80.66;99567.81;4959793;28;20042;-80
2021/12/06 06:18:16;;;;;;;29.13;13.70;;;;;;;-2.89;80.59;99557.00;4962822;28;20034;-79
2021/12/06 06:20:43;;;;;;;;;;;;;;;-2.87;80.32;99555.44;4963354;28;20130;-80
2021/12/06 06:23:09;;;;;;;27.00;12.93;;;;;;;-2.90;80.74;99560.34;4956212;28;20381;-81
2021/12/06 06:25:34;;;;;;;;;;;;;;;-2.91;80.68;99566.22;4936963;28;20051;-79
2021/12/06 06:28:01;;;;;;;30.95;12.52;;;;;;;-2.94;80.45;99564.41;4978398;28;20439;-79
2021/12/06 06:30:27;;;;;;;25.77;12.27;;;;;;;-2.96;80.49;99565.16;4978979;28;20054;-80
2021/12/06 06:32:52;;;;;;;27.60;14.40;;;;;;;-2.89;81.10;99565.50;4946482;28;20097;-80
2021/12/06 06:35:19;;;;;;;24.35;10.52;;;;;;;-2.84;80.86;99566.59;4959623;28;20046;-78
2021/12/06 06:37:44;;;;;;;23.58;12.18;;;;;;;-2.77;80.59;99575.38;4946897;28;20022;-79
2021/12/06 06:40:10;;;;;;;23.50;11.85;;;;;;;-2.79;80.24;99563.38;4962661;28;20050;-78
2021/12/06 06:42:36;;;;;;;29.73;14.63;;;;;;;-2.92;79.84;99577.19;4960900;28;20042;-79
2021/12/06 06:45:03;;;;;;;26.55;13.95;;;;;;;-2.93;80.56;99565.28;4956115;28;20046;-78
2021/12/06 06:47:28;;;;;;;24.63;12.85;;;;;;;-2.87;80.67;99576.59;4946628;28;20046;-79
2021/12/06 06:49:54;;;;;;;22.58;11.68;;;;;;;-2.92;80.08;99564.50;4995915;28;20042;-79
2021/12/06 06:52:20;;;;;;;27.73;14.02;;;;;;;-2.85;80.97;99569.91;4964002;28;20038;-78
2021/12/06 06:54:46;;;;;;;22.42;11.50;;;;;;;-2.79;80.74;99573.53;4978341;28;20050;-78
2021/12/06 06:57:12;;;;;;;24.00;11.68;;;;;;;-2.79;80.48;99574.44;4947656;28;20034;-83
2021/12/06 06:59:38;;;;;;;25.65;12.73;;;;;;;-2.74;80.29;99574.66;4978757;28;20080;-78
2021/12/06 07:02:04;;;;;;;29.83;14.23;;;;;;;-2.77;80.67;99577.03;4970693;28;20050;-81
2021/12/06 07:04:29;;;;;;;30.33;12.93;;;;;;;-2.74;80.54;99577.19;4966811;28;20042;-79
2021/12/06 07:06:55;;;;;;;23.80;12.45;;;;;;;-2.77;80.38;99577.03;4986982;28;20125;-80
2021/12/06 07:09:21;;;;;;;27.48;13.75;;;;;;;-2.81;80.51;99583.63;4995406;28;20082;-78
2021/12/06 07:11:47;;;;;;;30.83;14.43;;;;;;;-2.82;80.89;99590.38;4978195;28;20521;-78
2021/12/06 07:14:13;;;;;;;29.60;14.75;;;;;;;-2.82;80.43;99592.06;4991012;28;20045;-78
2021/12/06 07:16:39;;;;;;;;;;;;;;;-2.77;81.55;99597.34;4979388;28;20034;-79
2021/12/06 07:19:05;;;;;;;32.85;15.05;;;;;;;-2.69;81.06;99599.47;4961537;28;19923;-80
2021/12/06 07:21:30;;;;;;;28.45;13.75;;;;;;;-2.66;80.94;99601.25;4977693;28;20513;-78
2021/12/06 07:23:56;;;;;;;30.17;13.75;;;;;;;-2.62;80.75;99614.16;4986540;28;20444;-79
2021/12/06 07:26:22;;;;;;;25.20;14.15;;;;;;;-2.59;80.60;99619.41;4982379;28;20046;-79
2021/12/06 07:28:50;;;;;;;26.65;14.02;;;;;;;-2.57;80.23;99607.66;4977084;28;20042;-79
2021/12/06 07:31:16;;;;;;;28.08;14.20;;;;;;;-2.53;80.59;99617.94;4977729;28;20064;-78
2021/12/06 07:33:43;;;;;;;26.65;13.88;;;;;;;-2.49;80.80;99623.25;4945927;28;20133;-78
2021/12/06 07:36:09;;;;;;;27.20;13.73;;;;;;;-2.57;79.96;99617.81;4987538;28;20030;-83
2021/12/06 07:38:37;;;;;;;31.40;14.88;;;;;;;-2.53;80.46;99623.03;4933946;28;20056;-78
2021/12/06 07:41:06;;;;;;;28.67;14.55;;;;;;;-2.55;79.86;99625.50;4953753;28;20026;-80
2021/12/06 07:43:32;;;;;;;25.85;13.80;;;;;;;-2.53;80.33;99633.19;4983117;28;20057;-78
2021/12/06 07:45:57;;;;;;;28.00;13.20;;;;;;;-2.50;80.99;99631.66;4973027;28;20486;-79
2021/12/06 07:48:23;;;;;;;28.75;15.32;;;;;;;-2.54;80.50;99624.69;4952483;28;20105;-79
2021/12/06 07:50:49;;;;;;;25.88;14.30;;;;;;;-2.49;80.76;99623.25;4960236;28;20375;-80
2021/12/06 07:53:14;;;;;;;27.65;14.60;;;;;;;-2.44;80.71;99619.25;4953999;28;20049;-79
2021/12/06 07:55:40;;;;;;;28.67;14.60;;;;;;;-2.40;79.92;99620.25;4962924;28;20030;-78
2021/12/06 07:58:06;;;;;;;;;;;;;;;-2.49;79.76;99620.69;4969808;28;20084;-79
2021/12/06 08:00:34;;;;;;;25.60;13.48;;;;;;;-2.49;79.96;99624.91;4960788;28;20402;-80
2021/12/06 08:02:59;;;;;;;26.35;13.45;;;;;;;-2.43;80.60;99630.28;4985460;28;20092;-79
2021/12/06 08:05:33;;;;;;;24.08;12.60;;;;;;;-2.36;80.41;99623.03;4947501;28;20038;-80
2021/12/06 08:08:05;;;;;;;28.25;13.55;;;;;;;-2.30;79.81;99632.59;4978063;28;20450;-81
2021/12/06 08:10:31;;;;;;;30.27;15.07;;;;;;;-2.41;79.37;99632.09;4960997;28;20502;-81
2021/12/06 08:12:57;;;;;;;25.73;13.55;;;;;;;-2.40;80.29;99626.22;4945507;28;20046;-83
2021/12/06 08:15:23;;;;;;;28.30;14.43;;;;;;;-2.39;79.88;99630.50;4945242;28;20093;-80
2021/12/06 08:17:49;;;;;;;32.15;16.30;;;;;;;-2.35;79.69;99613.72;4955992;28;20033;-80
2021/12/06 08:20:15;;;;;;;27.90;15.45;;;;;;;-2.37;79.79;99606.03;4960981;28;20069;-79
2021/12/06 08:22:41;;;;;;;26.23;14.40;;;;;;;-2.32;79.65;99604.59;4971853;28;20463;-80
2021/12/06 08:25:07;;;;;;;31.52;15.52;;;;;;;-2.28;79.34;99607.28;4976889;28;20038;-81
2021/12/06 08:27:33;;;;;;;31.15;15.75;;;;;;;-2.26;79.87;99603.13;4977330;28;20445;-79
2021/12/06 08:29:59;;;;;;;26.45;14.43;;;;;;;-2.31;79.63;99592.75;4950728;28;20038;-79
2021/12/06 08:32:25;;;;;;;27.42;13.82;;;;;;;-2.18;79.83;99606.88;4984332;28;20516;-79
2021/12/06 08:34:50;;;;;;;29.52;14.80;;;;;;;-2.18;79.54;99600.13;4976699;28;20054;-80
2021/12/06 08:37:16;;;;;;;29.77;15.13;;;;;;;-2.16;79.71;99603.59;4994284;28;20042;-79
2021/12/06 08:39:42;;;;;;;27.58;14.13;;;;;;;-2.18;78.96;99602.66;4976562;28;20050;-81
2021/12/06 08:42:08;;;;;;;28.45;13.68;;;;;;;-2.13;78.76;99611.38;4960612;28;20096;-80
2021/12/06 08:44:33;;;;;;;;;;;;;;;-2.05;79.46;99616.81;4977121;28;20041;-81
2021/12/06 08:47:01;;;;;;;27.65;13.80;;;;;;;-2.16;78.22;99602.72;4976640;28;20400;-80
2021/12/06 08:49:27;;;;;;;24.38;13.25;;;;;;;-2.09;78.78;99620.00;4976496;28;20050;-78
2021/12/06 08:51:57;;;;;;;27.15;13.52;;;;;;;-2.03;78.86;99611.78;4974024;28;20378;-82
2021/12/06 08:54:26;;;;;;;27.25;14.43;;;;;;;-2.08;78.75;99597.19;4956077;28;20136;-79
2021/12/06 08:56:53;;;;;;;30.40;14.02;;;;;;;-1.98;77.77;99605.22;4942794;28;20030;-80
2021/12/06 08:59:19;;;;;;;27.42;13.50;;;;;;;-1.88;78.11;99609.91;4960325;28;20070;-79
2021/12/06 09:01:45;;;;;;;29.85;14.95;;;;;;;-2.02;77.16;99603.34;4960349;28;20466;-82
2021/12/06 09:04:12;;;;;;;31.48;16.17;;;;;;;-1.99;78.16;99601.81;4976380;28;20050;-80
2021/12/06 09:06:44;;;;;;;28.38;15.73;;;;;;;-1.94;78.01;99599.47;4976589;28;20038;-79
2021/12/06 09:09:10;;;;;;;30.25;16.20;;;;;;;-1.88;78.04;99603.19;4944020;28;20085;-80
2021/12/06 09:11:36;;;;;;;48.55;29.10;;;;;;;-1.81;78.30;99596.69;4993813;28;20081;-82
2021/12/06 09:14:02;;;;;;;29.55;16.40;;;;;;;-1.77;77.73;99600.25;4960299;28;20405;-78
2021/12/06 09:16:28;;;;;;;28.15;14.80;;;;;;;-1.81;77.73;99599.22;4981394;28;20117;-77
2021/12/06 09:18:53;;;;;;;28.10;15.98;;;;;;;-1.75;77.76;99599.47;4968590;28;20077;-81
2021/12/06 09:21:21;;;;;;;27.35;14.10;;;;;;;-1.78;77.15;99588.34;4973410;28;20116;-80
2021/12/06 09:23:47;;;;;;;29.35;15.30;;;;;;;-1.72;77.76;99601.31;4952182;28;20060;-81
2021/12/06 09:26:12;;;;;;;30.80;15.52;;;;;;;-1.72;77.39;99592.00;4983697;28;20038;-80
2021/12/06 09:28:41;;;;;;;28.92;14.30;;;;;;;-1.69;77.30;99589.59;4947369;28;20050;-80
2021/12/06 09:31:07;;;;;;;27.73;14.70;;;;;;;-1.65;76.94;99585.50;4946869;28;20039;-79
2021/12/06 09:33:34;;;;;;;27.98;15.63;;;;;;;-1.65;77.23;99580.41;4974780;28;20406;-79
2021/12/06 09:36:00;;;;;;;;;;;;;;;-1.62;76.94;99578.88;4960763;28;20034;-79
2021/12/06 09:38:28;;;;;;;29.83;16.27;;;;;;;-1.61;76.96;99580.59;4960179;28;19945;-81
2021/12/06 09:40:55;;;;;;;26.42;14.70;;;;;;;-1.61;77.13;99580.59;4975799;28;20357;-78
2021/12/06 09:43:21;;;;;;;32.13;14.65;;;;;;;-1.60;76.91;99573.88;4944477;28;20053;-77
2021/12/06 09:45:47;;;;;;;29.25;15.40;;;;;;;-1.55;77.22;99583.44;4976469;28;20038;-79
2021/12/06 09:48:15;;;;;;;32.53;15.20;;;;;;;-1.55;76.64;99592.72;4960094;28;20038;-78
2021/12/06 09:50:44;;;;;;;26.90;14.68;;;;;;;-1.50;76.84;99596.34;4944233;28;20086;-79
2021/12/06 09:53:12;;;;;;;29.35;15.10;;;;;;;-1.47;76.81;99600.66;4962781;28;20039;-79
2021/12/06 09:55:38;;;;;;;39.28;22.60;;;;;;;-1.43;76.37;99602.53;4960569;28;20046;-80
2021/12/06 09:58:04;;;;;;;29.02;16.52;;;;;;;-1.39;76.48;99609.50;4987456;28;20121;-79
2021/12/06 10:00:30;;;;;;;;;;;;;;;-1.39;76.43;99604.41;4963660;28;20102;-79
2021/12/06 10:02:56;;;;;;;26.03;14.37;;;;;;;-1.33;75.89;99597.03;4959911;28;19918;-81
2021/12/06 10:05:26;;;;;;;28.63;15.57;;;;;;;-1.36;76.08;99592.69;4960191;28;20134;-81
2021/12/06 10:07:53;;;;;;;28.20;14.98;;;;;;;-1.34;75.98;99592.75;4979763;28;20046;-79
2021/12/06 10:10:19;;;;;;;30.58;16.13;;;;;;;-1.32;75.87;99596.25;4963166;28;20034;-80
2021/12/06 10:12:48;;;;;;;30.75;16.65;;;;;;;-1.31;76.03;99588.66;4979152;28;20053;-83
2021/12/06 10:15:14;;;;;;;31.25;17.27;;;;;;;-1.26;75.78;99596.50;4970514;28;20054;-79
2021/12/06 10:17:41;;;;;;;27.48;15.32;;;;;;;-1.35;75.07;99596.13;4994913;28;20042;-82
2021/12/06 10:20:09;;;;;;;27.50;16.08;;;;;;;-1.35;75.40;99599.53;4959844;28;20050;-81
2021/12/06 10:22:35;;;;;;;29.85;15.68;;;;;;;-1.37;75.65;99588.44;4927962;28;20078;-83
2021/12/06 10:25:01;;;;;;;26.55;16.05;;;;;;;-1.33;76.06;99592.84;4963380;28;20498;-82
2021/12/06 10:27:28;;;;;;;27.98;15.40;;;;;;;-1.31;76.26;99588.66;4992446;28;20046;-79
2021/12/06 10:29:59;;;;;;;26.00;15.20;;;;;;;-1.32;75.84;99591.16;4944103;28;20446;-81
2021/12/06 10:32:31;;;;;;;26.90;15.43;;;;;;;-1.26;76.03;99596.50;4986329;28;20477;-79
2021/12/06 10:35:04;;;;;;;29.80;16.17;;;;;;;-1.24;75.96;99591.47;4995986;28;20038;-80
2021/12/06 10:37:45;;;;;;;23.60;14.10;;;;;;;-1.17;75.95;99596.00;4978862;28;20046;-80
2021/12/06 10:40:20;;;;;;;26.65;15.15;;;;;;;-1.10;76.30;99596.34;4996266;28;20042;-79
2021/12/06 10:42:46;;;;;;;25.92;16.83;;;;;;;-1.11;75.84;99592.03;4962344;28;20413;-79
2021/12/06 10:45:19;;;;;;;25.27;14.65;;;;;;;-1.14;75.90;99599.56;4964338;28;20109;-79
2021/12/06 10:48:07;;;;;;;25.85;15.38;;;;;;;-1.15;75.87;99577.44;4969943;28;20038;-80
2021/12/06 10:50:33;;;;;;;30.48;17.70;;;;;;;-1.08;75.54;99596.41;4965676;28;20145;-79
2021/12/06 10:53:00;;;;;;;27.00;16.80;;;;;;;-1.19;74.97;99595.97;4962638;28;20096;-77
2021/12/06 10:55:29;;;;;;;27.60;15.45;;;;;;;-1.20;75.33;99603.50;4943656;28;20038;-78
2021/12/06 10:57:56;;;;;;;28.55;15.85;;;;;;;-1.20;75.48;99606.91;4978367;28;20034;-78
2021/12/06 11:00:34;;;;;;;28.27;16.58;;;;;;;-1.16;75.77;99603.72;4941855;28;20049;-79
2021/12/06 11:03:01;;;;;;;25.45;15.82;;;;;;;-1.12;75.95;99605.56;4982294;28;20042;-79
2021/12/06 11:05:28;;;;;;;29.13;16.50;;;;;;;-1.10;75.88;99603.97;4961984;28;20104;-78
2021/12/06 11:08:11;;;;;;;29.05;16.02;;;;;;;-1.06;75.65;99605.81;4945791;28;20090;-77
2021/12/06 11:10:39;;;;;;;26.00;15.80;;;;;;;-1.06;75.59;99604.94;4957642;28;20039;-81
2021/12/06 11:13:46;;;;;;;25.73;15.50;;;;;;;-1.05;75.60;99607.56;4961875;28;20364;-79
2021/12/06 11:16:21;;;;;;;29.00;18.40;;;;;;;-1.00;75.87;99609.44;4940557;28;20054;-79
2021/12/06 11:18:50;;;;;;;29.65;17.38;;;;;;;-1.02;75.36;99612.78;4951015;28;20050;-79
2021/12/06 11:21:39;;;;;;;28.90;16.30;;;;;;;-1.04;75.66;99599.13;4975233;28;20022;-79
2021/12/06 11:24:18;;;;;;;27.17;15.50;;;;;;;-1.02;75.37;99610.22;4973134;28;20050;-79
2021/12/06 11:26:57;;;;;;;26.48;16.00;;;;;;;-0.98;75.27;99611.22;4961807;28;20046;-78
2021/12/06 11:29:25;;;;;;;27.70;15.98;;;;;;;-0.99;75.37;99603.53;4986629;28;20035;-81
2021/12/06 11:32:15;;;;;;;29.30;15.70;;;;;;;-0.99;75.11;99594.22;4977529;28;20524;-80
2021/12/06 11:34:52;;;;;;;26.95;15.65;;;;;;;-1.00;75.52;99599.25;4995019;28;20046;-78